sensor_id;sensor_type;location;lat;lon;timestamp;temperature;humidity
15103;DHT22;7652;53.584;9.998;2022-07-06T00:01:52;16.60;99.90
15103;DHT22;7652;53.584;9.998;2022-07-06T00:04:55;16.50;99.90
15103;DHT22;7652;53.584;9.998;2022-07-06T00:07:59;16.60;99.90
15103;DHT22;7652;53.584;9.998;2022-07-06T00:11:02;16.50;99.90
15103;DHT22;7652;53.584;9.998;2022-07-06T00:14:05;16.60;99.90
15103;DHT22;7652;53.584;9.998;2022-07-06T00:17:10;16.60;99.90
15103;DHT22;7652;53.584;9.998;2022-07-06T00:20:13;16.60;99.90
15103;DHT22;7652;53.584;9.998;2022-07-06T00:23:16;16.60;99.90
15103;DHT22;7652;53.584;9.998;2022-07-06T00:26:19;16.60;99.90
15103;DHT22;7652;53.584;9.998;2022-07-06T00:29:22;16.60;99.90
15103;DHT22;7652;53.584;9.998;2022-07-06T00:32:27;16.60;99.90
15103;DHT22;7652;53.584;9.998;2022-07-06T00:35:30;16.60;99.90
15103;DHT22;7652;53.584;9.998;2022-07-06T00:38:33;16.60;99.90
15103;DHT22;7652;53.584;9.998;2022-07-06T00:41:36;16.70;99.90
15103;DHT22;7652;53.584;9.998;2022-07-06T00:44:39;16.60;99.90
15103;DHT22;7652;53.584;9.998;2022-07-06T00:47:44;16.60;99.90
15103;DHT22;7652;53.584;9.998;2022-07-06T00:50:48;16.60;99.90
15103;DHT22;7652;53.584;9.998;2022-07-06T00:53:51;16.50;99.90
15103;DHT22;7652;53.584;9.998;2022-07-06T00:56:54;16.50;99.90
15103;DHT22;7652;53.584;9.998;2022-07-06T00:59:57;16.50;99.90
15103;DHT22;7652;53.584;9.998;2022-07-06T01:03:03;16.50;99.90
15103;DHT22;7652;53.584;9.998;2022-07-06T01:06:06;16.50;99.90
15103;DHT22;7652;53.584;9.998;2022-07-06T01:09:09;16.40;99.90
15103;DHT22;7652;53.584;9.998;2022-07-06T01:12:12;16.50;99.90
15103;DHT22;7652;53.584;9.998;2022-07-06T01:15:16;16.50;99.90
15103;DHT22;7652;53.584;9.998;2022-07-06T01:18:21;16.50;99.90
15103;DHT22;7652;53.584;9.998;2022-07-06T01:21:26;16.40;99.90
15103;DHT22;7652;53.584;9.998;2022-07-06T01:24:29;16.50;99.90
15103;DHT22;7652;53.584;9.998;2022-07-06T01:27:33;16.50;99.90
15103;DHT22;7652;53.584;9.998;2022-07-06T01:30:39;16.50;99.90
15103;DHT22;7652;53.584;9.998;2022-07-06T01:33:42;16.50;99.90
15103;DHT22;7652;53.584;9.998;2022-07-06T01:36:47;16.50;99.90
15103;DHT22;7652;53.584;9.998;2022-07-06T01:39:50;16.40;99.90
15103;DHT22;7652;53.584;9.998;2022-07-06T01:42:53;16.40;99.90
15103;DHT22;7652;53.584;9.998;2022-07-06T01:45:56;16.40;99.90
15103;DHT22;7652;53.584;9.998;2022-07-06T01:48:59;16.30;99.90
15103;DHT22;7652;53.584;9.998;2022-07-06T01:52:04;16.30;99.90
15103;DHT22;7652;53.584;9.998;2022-07-06T01:55:08;16.30;99.90
15103;DHT22;7652;53.584;9.998;2022-07-06T01:58:11;16.20;99.90
15103;DHT22;7652;53.584;9.998;2022-07-06T02:01:16;16.20;99.90
15103;DHT22;7652;53.584;9.998;2022-07-06T02:04:19;16.30;99.90
15103;DHT22;7652;53.584;9.998;2022-07-06T02:07:24;16.30;99.90
15103;DHT22;7652;53.584;9.998;2022-07-06T02:10:27;16.30;99.90
15103;DHT22;7652;53.584;9.998;2022-07-06T02:13:30;16.20;99.90
15103;DHT22;7652;53.584;9.998;2022-07-06T02:16:33;16.20;99.90
15103;DHT22;7652;53.584;9.998;2022-07-06T02:19:36;16.20;99.90
15103;DHT22;7652;53.584;9.998;2022-07-06T02:22:40;16.20;99.90
15103;DHT22;7652;53.584;9.998;2022-07-06T02:25:44;16.20;99.90
15103;DHT22;7652;53.584;9.998;2022-07-06T02:28:47;16.10;99.90
15103;DHT22;7652;53.584;9.998;2022-07-06T02:31:50;16.10;99.90
15103;DHT22;7652;53.584;9.998;2022-07-06T02:34:53;16.10;99.90
15103;DHT22;7652;53.584;9.998;2022-07-06T02:37:58;16.00;99.90
15103;DHT22;7652;53.584;9.998;2022-07-06T02:41:01;16.10;99.90
15103;DHT22;7652;53.584;9.998;2022-07-06T02:44:04;16.10;99.90
15103;DHT22;7652;53.584;9.998;2022-07-06T02:47:07;16.10;99.90
15103;DHT22;7652;53.584;9.998;2022-07-06T02:50:10;16.00;99.90
15103;DHT22;7652;53.584;9.998;2022-07-06T02:53:14;16.00;99.90
15103;DHT22;7652;53.584;9.998;2022-07-06T02:56:17;16.10;99.90
15103;DHT22;7652;53.584;9.998;2022-07-06T02:59:20;16.00;99.90
15103;DHT22;7652;53.584;9.998;2022-07-06T03:02:23;16.00;99.90
15103;DHT22;7652;53.584;9.998;2022-07-06T03:05:28;16.00;99.90
15103;DHT22;7652;53.584;9.998;2022-07-06T03:08:32;16.00;99.90
15103;DHT22;7652;53.584;9.998;2022-07-06T03:11:36;16.00;99.90
15103;DHT22;7652;53.584;9.998;2022-07-06T03:14:39;15.90;99.90
15103;DHT22;7652;53.584;9.998;2022-07-06T03:17:42;15.90;99.90
15103;DHT22;7652;53.584;9.998;2022-07-06T03:20:45;16.00;99.90
15103;DHT22;7652;53.584;9.998;2022-07-06T03:23:50;15.90;99.90
15103;DHT22;7652;53.584;9.998;2022-07-06T03:26:53;16.00;99.90
15103;DHT22;7652;53.584;9.998;2022-07-06T03:29:56;16.00;99.90
15103;DHT22;7652;53.584;9.998;2022-07-06T03:32:59;16.00;99.90
15103;DHT22;7652;53.584;9.998;2022-07-06T03:36:02;16.00;99.90
15103;DHT22;7652;53.584;9.998;2022-07-06T03:39:08;15.90;99.90
15103;DHT22;7652;53.584;9.998;2022-07-06T03:42:11;15.90;99.90
15103;DHT22;7652;53.584;9.998;2022-07-06T03:45:14;16.00;99.90
15103;DHT22;7652;53.584;9.998;2022-07-06T03:48:17;16.00;99.90
15103;DHT22;7652;53.584;9.998;2022-07-06T03:51:21;15.90;99.90
15103;DHT22;7652;53.584;9.998;2022-07-06T03:54:25;15.90;99.90
15103;DHT22;7652;53.584;9.998;2022-07-06T03:57:28;16.00;99.90
15103;DHT22;7652;53.584;9.998;2022-07-06T04:00:31;16.00;99.90
15103;DHT22;7652;53.584;9.998;2022-07-06T04:03:36;16.00;99.90
15103;DHT22;7652;53.584;9.998;2022-07-06T04:06:39;16.00;99.90
15103;DHT22;7652;53.584;9.998;2022-07-06T04:09:43;16.00;99.90
15103;DHT22;7652;53.584;9.998;2022-07-06T04:12:46;15.80;99.90
15103;DHT22;7652;53.584;9.998;2022-07-06T04:15:49;15.70;99.90
15103;DHT22;7652;53.584;9.998;2022-07-06T04:18:52;15.70;99.90
15103;DHT22;7652;53.584;9.998;2022-07-06T04:21:55;15.70;99.90
15103;DHT22;7652;53.584;9.998;2022-07-06T04:25:00;15.70;99.90
15103;DHT22;7652;53.584;9.998;2022-07-06T04:28:03;15.70;99.90
15103;DHT22;7652;53.584;9.998;2022-07-06T04:31:06;15.80;99.90
15103;DHT22;7652;53.584;9.998;2022-07-06T04:34:09;15.90;99.90
15103;DHT22;7652;53.584;9.998;2022-07-06T04:37:12;15.80;99.90
15103;DHT22;7652;53.584;9.998;2022-07-06T04:40:17;15.80;99.90
15103;DHT22;7652;53.584;9.998;2022-07-06T04:43:20;15.90;99.90
15103;DHT22;7652;53.584;9.998;2022-07-06T04:46:23;16.00;99.90
15103;DHT22;7652;53.584;9.998;2022-07-06T04:49:26;16.00;99.90
15103;DHT22;7652;53.584;9.998;2022-07-06T04:52:29;16.00;99.90
15103;DHT22;7652;53.584;9.998;2022-07-06T04:55:34;16.10;99.90
15103;DHT22;7652;53.584;9.998;2022-07-06T04:58:37;16.10;99.90
15103;DHT22;7652;53.584;9.998;2022-07-06T05:01:40;16.20;99.90
15103;DHT22;7652;53.584;9.998;2022-07-06T05:04:43;16.20;99.90
15103;DHT22;7652;53.584;9.998;2022-07-06T05:07:46;16.20;99.90
15103;DHT22;7652;53.584;9.998;2022-07-06T05:10:50;16.20;99.90
15103;DHT22;7652;53.584;9.998;2022-07-06T05:13:53;16.20;99.90
15103;DHT22;7652;53.584;9.998;2022-07-06T05:16:57;16.30;99.90
15103;DHT22;7652;53.584;9.998;2022-07-06T05:20:00;16.30;99.90
15103;DHT22;7652;53.584;9.998;2022-07-06T05:23:03;16.30;99.90
15103;DHT22;7652;53.584;9.998;2022-07-06T05:26:07;16.30;99.90
15103;DHT22;7652;53.584;9.998;2022-07-06T05:29:10;16.30;99.90
15103;DHT22;7652;53.584;9.998;2022-07-06T05:32:13;16.40;99.90
15103;DHT22;7652;53.584;9.998;2022-07-06T05:35:17;16.30;99.90
15103;DHT22;7652;53.584;9.998;2022-07-06T05:38:40;16.40;99.90
15103;DHT22;7652;53.584;9.998;2022-07-06T05:41:44;16.50;99.90
15103;DHT22;7652;53.584;9.998;2022-07-06T05:44:47;16.50;99.90
15103;DHT22;7652;53.584;9.998;2022-07-06T05:47:50;16.50;99.90
15103;DHT22;7652;53.584;9.998;2022-07-06T05:51:11;16.50;99.90
15103;DHT22;7652;53.584;9.998;2022-07-06T05:54:14;16.50;99.90
15103;DHT22;7652;53.584;9.998;2022-07-06T05:57:18;16.50;99.90
15103;DHT22;7652;53.584;9.998;2022-07-06T06:00:21;16.60;99.90
15103;DHT22;7652;53.584;9.998;2022-07-06T06:03:24;16.60;99.90
15103;DHT22;7652;53.584;9.998;2022-07-06T06:06:27;16.60;99.90
15103;DHT22;7652;53.584;9.998;2022-07-06T06:09:33;16.50;99.90
15103;DHT22;7652;53.584;9.998;2022-07-06T06:12:37;16.50;99.90
15103;DHT22;7652;53.584;9.998;2022-07-06T06:15:41;16.50;99.90
15103;DHT22;7652;53.584;9.998;2022-07-06T06:18:44;16.50;99.90
15103;DHT22;7652;53.584;9.998;2022-07-06T06:21:47;16.50;99.90
15103;DHT22;7652;53.584;9.998;2022-07-06T06:24:50;16.50;99.90
15103;DHT22;7652;53.584;9.998;2022-07-06T06:27:54;16.50;99.90
15103;DHT22;7652;53.584;9.998;2022-07-06T06:30:57;16.50;99.90
15103;DHT22;7652;53.584;9.998;2022-07-06T06:34:00;16.40;99.90
15103;DHT22;7652;53.584;9.998;2022-07-06T06:37:04;16.50;99.90
15103;DHT22;7652;53.584;9.998;2022-07-06T06:40:08;16.60;99.90
15103;DHT22;7652;53.584;9.998;2022-07-06T06:43:12;16.60;99.90
15103;DHT22;7652;53.584;9.998;2022-07-06T06:46:15;16.70;99.90
15103;DHT22;7652;53.584;9.998;2022-07-06T06:49:18;16.70;99.90
15103;DHT22;7652;53.584;9.998;2022-07-06T06:52:21;16.70;99.90
15103;DHT22;7652;53.584;9.998;2022-07-06T06:55:42;16.70;99.90
15103;DHT22;7652;53.584;9.998;2022-07-06T06:58:46;16.80;99.90
15103;DHT22;7652;53.584;9.998;2022-07-06T07:02:09;16.90;99.90
15103;DHT22;7652;53.584;9.998;2022-07-06T07:05:12;16.90;99.90
15103;DHT22;7652;53.584;9.998;2022-07-06T07:08:15;16.90;99.90
15103;DHT22;7652;53.584;9.998;2022-07-06T07:11:18;16.90;99.90
15103;DHT22;7652;53.584;9.998;2022-07-06T07:14:23;16.90;99.90
15103;DHT22;7652;53.584;9.998;2022-07-06T07:17:26;16.90;99.90
15103;DHT22;7652;53.584;9.998;2022-07-06T07:20:29;17.00;99.90
15103;DHT22;7652;53.584;9.998;2022-07-06T07:23:34;17.10;99.90
15103;DHT22;7652;53.584;9.998;2022-07-06T07:26:37;17.20;99.90
15103;DHT22;7652;53.584;9.998;2022-07-06T07:29:41;17.30;99.90
15103;DHT22;7652;53.584;9.998;2022-07-06T07:32:44;17.40;99.90
15103;DHT22;7652;53.584;9.998;2022-07-06T07:35:48;17.40;99.90
15103;DHT22;7652;53.584;9.998;2022-07-06T07:38:51;17.30;99.90
15103;DHT22;7652;53.584;9.998;2022-07-06T07:41:54;17.30;99.90
15103;DHT22;7652;53.584;9.998;2022-07-06T07:44:58;17.20;99.90
15103;DHT22;7652;53.584;9.998;2022-07-06T07:48:01;17.20;99.90
15103;DHT22;7652;53.584;9.998;2022-07-06T07:51:04;17.10;99.90
15103;DHT22;7652;53.584;9.998;2022-07-06T07:54:07;17.10;99.90
15103;DHT22;7652;53.584;9.998;2022-07-06T07:57:10;17.00;99.90
15103;DHT22;7652;53.584;9.998;2022-07-06T08:00:15;16.90;99.90
15103;DHT22;7652;53.584;9.998;2022-07-06T08:03:18;16.90;99.90
15103;DHT22;7652;53.584;9.998;2022-07-06T08:06:21;16.90;99.90
15103;DHT22;7652;53.584;9.998;2022-07-06T08:09:24;16.90;99.90
15103;DHT22;7652;53.584;9.998;2022-07-06T08:12:27;17.00;99.90
15103;DHT22;7652;53.584;9.998;2022-07-06T08:15:31;17.10;99.90
15103;DHT22;7652;53.584;9.998;2022-07-06T08:18:35;17.40;99.90
15103;DHT22;7652;53.584;9.998;2022-07-06T08:21:38;17.60;99.90
15103;DHT22;7652;53.584;9.998;2022-07-06T08:24:41;17.80;99.90
15103;DHT22;7652;53.584;9.998;2022-07-06T08:27:44;17.90;99.90
15103;DHT22;7652;53.584;9.998;2022-07-06T08:30:48;17.80;99.90
15103;DHT22;7652;53.584;9.998;2022-07-06T08:33:51;17.70;99.90
15103;DHT22;7652;53.584;9.998;2022-07-06T08:36:55;17.60;99.90
15103;DHT22;7652;53.584;9.998;2022-07-06T08:39:58;17.50;99.90
15103;DHT22;7652;53.584;9.998;2022-07-06T08:43:01;17.30;99.90
15103;DHT22;7652;53.584;9.998;2022-07-06T08:46:07;17.30;99.90
15103;DHT22;7652;53.584;9.998;2022-07-06T08:49:13;17.20;99.90
15103;DHT22;7652;53.584;9.998;2022-07-06T08:52:16;17.30;99.90
15103;DHT22;7652;53.584;9.998;2022-07-06T08:55:19;17.20;99.90
15103;DHT22;7652;53.584;9.998;2022-07-06T08:58:24;17.30;99.90
15103;DHT22;7652;53.584;9.998;2022-07-06T09:01:29;17.40;99.90
15103;DHT22;7652;53.584;9.998;2022-07-06T09:04:33;17.40;99.90
15103;DHT22;7652;53.584;9.998;2022-07-06T09:07:38;17.50;99.90
15103;DHT22;7652;53.584;9.998;2022-07-06T09:11:00;17.60;99.90
15103;DHT22;7652;53.584;9.998;2022-07-06T09:14:04;17.70;99.90
15103;DHT22;7652;53.584;9.998;2022-07-06T09:17:08;17.70;99.90
15103;DHT22;7652;53.584;9.998;2022-07-06T09:23:23;17.90;99.90
15103;DHT22;7652;53.584;9.998;2022-07-06T09:26:27;18.10;99.90
15103;DHT22;7652;53.584;9.998;2022-07-06T09:29:31;18.10;99.90
15103;DHT22;7652;53.584;9.998;2022-07-06T09:32:40;18.00;99.90
15103;DHT22;7652;53.584;9.998;2022-07-06T09:35:43;18.00;99.90
15103;DHT22;7652;53.584;9.998;2022-07-06T09:38:47;18.00;99.90
15103;DHT22;7652;53.584;9.998;2022-07-06T09:41:52;18.10;99.90
15103;DHT22;7652;53.584;9.998;2022-07-06T09:44:55;18.10;99.90
15103;DHT22;7652;53.584;9.998;2022-07-06T09:48:06;18.20;99.90
15103;DHT22;7652;53.584;9.998;2022-07-06T09:51:09;18.40;99.90
15103;DHT22;7652;53.584;9.998;2022-07-06T09:54:13;18.50;99.90
15103;DHT22;7652;53.584;9.998;2022-07-06T09:57:16;18.60;99.90
15103;DHT22;7652;53.584;9.998;2022-07-06T10:00:19;18.70;99.90
15103;DHT22;7652;53.584;9.998;2022-07-06T10:03:24;18.80;99.90
15103;DHT22;7652;53.584;9.998;2022-07-06T10:06:27;19.00;99.90
15103;DHT22;7652;53.584;9.998;2022-07-06T10:09:30;19.20;99.90
15103;DHT22;7652;53.584;9.998;2022-07-06T10:12:33;19.40;99.90
15103;DHT22;7652;53.584;9.998;2022-07-06T10:15:39;19.40;99.90
15103;DHT22;7652;53.584;9.998;2022-07-06T10:18:44;19.30;99.90
15103;DHT22;7652;53.584;9.998;2022-07-06T10:21:48;19.10;99.90
15103;DHT22;7652;53.584;9.998;2022-07-06T10:24:51;18.90;99.90
15103;DHT22;7652;53.584;9.998;2022-07-06T10:27:55;18.50;99.90
15103;DHT22;7652;53.584;9.998;2022-07-06T10:30:59;18.00;99.90
15103;DHT22;7652;53.584;9.998;2022-07-06T10:34:06;17.60;99.90
15103;DHT22;7652;53.584;9.998;2022-07-06T10:37:21;17.30;99.90
15103;DHT22;7652;53.584;9.998;2022-07-06T10:40:32;17.10;99.90
15103;DHT22;7652;53.584;9.998;2022-07-06T10:43:52;17.00;99.90
15103;DHT22;7652;53.584;9.998;2022-07-06T10:46:59;16.90;99.90
15103;DHT22;7652;53.584;9.998;2022-07-06T10:50:04;16.80;99.90
15103;DHT22;7652;53.584;9.998;2022-07-06T10:53:14;16.80;99.90
15103;DHT22;7652;53.584;9.998;2022-07-06T10:56:17;16.80;99.90
15103;DHT22;7652;53.584;9.998;2022-07-06T10:59:21;16.80;99.90
15103;DHT22;7652;53.584;9.998;2022-07-06T11:02:25;16.90;99.90
15103;DHT22;7652;53.584;9.998;2022-07-06T11:05:42;16.90;99.90
15103;DHT22;7652;53.584;9.998;2022-07-06T11:09:06;17.10;99.90
15103;DHT22;7652;53.584;9.998;2022-07-06T11:12:15;17.20;99.90
15103;DHT22;7652;53.584;9.998;2022-07-06T11:15:47;17.30;99.90
15103;DHT22;7652;53.584;9.998;2022-07-06T11:19:00;17.40;99.90
15103;DHT22;7652;53.584;9.998;2022-07-06T11:22:09;17.60;99.90
15103;DHT22;7652;53.584;9.998;2022-07-06T11:25:12;17.90;99.90
15103;DHT22;7652;53.584;9.998;2022-07-06T11:28:17;18.20;99.90
15103;DHT22;7652;53.584;9.998;2022-07-06T11:31:20;18.50;99.90
15103;DHT22;7652;53.584;9.998;2022-07-06T11:34:25;18.80;99.90
15103;DHT22;7652;53.584;9.998;2022-07-06T11:37:30;19.00;99.90
15103;DHT22;7652;53.584;9.998;2022-07-06T11:40:37;19.20;99.90
15103;DHT22;7652;53.584;9.998;2022-07-06T11:43:41;19.10;99.90
15103;DHT22;7652;53.584;9.998;2022-07-06T11:46:47;18.90;99.90
15103;DHT22;7652;53.584;9.998;2022-07-06T11:49:50;18.80;99.90
15103;DHT22;7652;53.584;9.998;2022-07-06T11:52:55;18.60;99.90
15103;DHT22;7652;53.584;9.998;2022-07-06T11:56:02;18.50;99.90
15103;DHT22;7652;53.584;9.998;2022-07-06T11:59:06;18.60;99.90
15103;DHT22;7652;53.584;9.998;2022-07-06T12:02:11;18.80;99.90
15103;DHT22;7652;53.584;9.998;2022-07-06T12:05:29;18.90;99.90
15103;DHT22;7652;53.584;9.998;2022-07-06T12:08:41;19.10;99.90
15103;DHT22;7652;53.584;9.998;2022-07-06T12:11:45;19.50;99.90
15103;DHT22;7652;53.584;9.998;2022-07-06T12:14:52;19.70;99.90
15103;DHT22;7652;53.584;9.998;2022-07-06T12:17:55;20.10;99.90
15103;DHT22;7652;53.584;9.998;2022-07-06T12:20:58;20.50;99.90
15103;DHT22;7652;53.584;9.998;2022-07-06T12:24:07;20.80;99.90
15103;DHT22;7652;53.584;9.998;2022-07-06T12:27:12;21.10;99.90
15103;DHT22;7652;53.584;9.998;2022-07-06T12:30:16;21.60;99.90
15103;DHT22;7652;53.584;9.998;2022-07-06T12:33:24;22.30;99.90
15103;DHT22;7652;53.584;9.998;2022-07-06T12:36:30;22.30;99.90
15103;DHT22;7652;53.584;9.998;2022-07-06T12:39:42;22.00;99.90
15103;DHT22;7652;53.584;9.998;2022-07-06T12:42:45;21.50;99.90
15103;DHT22;7652;53.584;9.998;2022-07-06T12:45:49;21.30;99.90
15103;DHT22;7652;53.584;9.998;2022-07-06T12:48:53;21.10;99.90
15103;DHT22;7652;53.584;9.998;2022-07-06T12:52:00;21.60;99.90
15103;DHT22;7652;53.584;9.998;2022-07-06T12:55:07;22.00;99.90
15103;DHT22;7652;53.584;9.998;2022-07-06T12:58:18;22.00;99.90
15103;DHT22;7652;53.584;9.998;2022-07-06T13:01:21;21.80;99.90
15103;DHT22;7652;53.584;9.998;2022-07-06T13:04:25;21.50;99.90
15103;DHT22;7652;53.584;9.998;2022-07-06T13:07:30;21.40;99.90
15103;DHT22;7652;53.584;9.998;2022-07-06T13:10:35;21.30;99.90
15103;DHT22;7652;53.584;9.998;2022-07-06T13:13:43;21.50;99.90
15103;DHT22;7652;53.584;9.998;2022-07-06T13:16:47;21.90;99.90
15103;DHT22;7652;53.584;9.998;2022-07-06T13:19:50;21.90;99.90
15103;DHT22;7652;53.584;9.998;2022-07-06T13:22:53;21.70;99.90
15103;DHT22;7652;53.584;9.998;2022-07-06T13:25:58;21.80;99.90
15103;DHT22;7652;53.584;9.998;2022-07-06T13:29:01;21.90;99.90
15103;DHT22;7652;53.584;9.998;2022-07-06T13:32:05;21.60;99.90
15103;DHT22;7652;53.584;9.998;2022-07-06T13:35:09;21.40;99.90
15103;DHT22;7652;53.584;9.998;2022-07-06T13:38:12;21.40;99.90
15103;DHT22;7652;53.584;9.998;2022-07-06T13:41:17;21.50;99.90
15103;DHT22;7652;53.584;9.998;2022-07-06T13:44:20;21.70;99.90
15103;DHT22;7652;53.584;9.998;2022-07-06T13:47:23;21.70;99.90
15103;DHT22;7652;53.584;9.998;2022-07-06T13:50:26;21.70;99.90
15103;DHT22;7652;53.584;9.998;2022-07-06T13:53:34;21.70;99.90
15103;DHT22;7652;53.584;9.998;2022-07-06T13:56:39;21.70;99.90
15103;DHT22;7652;53.584;9.998;2022-07-06T13:59:42;21.80;99.90
15103;DHT22;7652;53.584;9.998;2022-07-06T14:02:45;21.80;99.90
15103;DHT22;7652;53.584;9.998;2022-07-06T14:05:48;21.90;99.90
15103;DHT22;7652;53.584;9.998;2022-07-06T14:08:51;21.90;99.90
15103;DHT22;7652;53.584;9.998;2022-07-06T14:11:56;21.90;99.90
15103;DHT22;7652;53.584;9.998;2022-07-06T14:14:59;22.00;99.90
15103;DHT22;7652;53.584;9.998;2022-07-06T14:18:02;22.00;99.90
15103;DHT22;7652;53.584;9.998;2022-07-06T14:21:05;22.00;99.90
15103;DHT22;7652;53.584;9.998;2022-07-06T14:24:08;22.10;99.90
15103;DHT22;7652;53.584;9.998;2022-07-06T14:27:13;22.00;99.90
15103;DHT22;7652;53.584;9.998;2022-07-06T14:30:15;21.80;99.90
15103;DHT22;7652;53.584;9.998;2022-07-06T14:33:19;21.60;99.90
15103;DHT22;7652;53.584;9.998;2022-07-06T14:36:22;21.50;99.90
15103;DHT22;7652;53.584;9.998;2022-07-06T14:39:25;21.40;99.90
15103;DHT22;7652;53.584;9.998;2022-07-06T14:42:29;21.20;99.90
15103;DHT22;7652;53.584;9.998;2022-07-06T14:45:32;21.10;99.90
15103;DHT22;7652;53.584;9.998;2022-07-06T14:48:36;21.10;99.90
15103;DHT22;7652;53.584;9.998;2022-07-06T14:51:39;20.90;99.90
15103;DHT22;7652;53.584;9.998;2022-07-06T14:54:42;21.10;99.90
15103;DHT22;7652;53.584;9.998;2022-07-06T14:57:46;21.20;99.90
15103;DHT22;7652;53.584;9.998;2022-07-06T15:00:49;21.30;99.90
15103;DHT22;7652;53.584;9.998;2022-07-06T15:04:00;21.30;99.90
15103;DHT22;7652;53.584;9.998;2022-07-06T15:07:03;21.40;99.90
15103;DHT22;7652;53.584;9.998;2022-07-06T15:10:07;21.50;99.90
15103;DHT22;7652;53.584;9.998;2022-07-06T15:13:12;21.50;99.90
15103;DHT22;7652;53.584;9.998;2022-07-06T15:16:15;21.50;99.90
15103;DHT22;7652;53.584;9.998;2022-07-06T15:19:18;21.50;99.90
15103;DHT22;7652;53.584;9.998;2022-07-06T15:22:21;21.20;99.90
15103;DHT22;7652;53.584;9.998;2022-07-06T15:25:25;21.10;99.90
15103;DHT22;7652;53.584;9.998;2022-07-06T15:28:29;21.00;99.90
15103;DHT22;7652;53.584;9.998;2022-07-06T15:31:32;20.90;99.90
15103;DHT22;7652;53.584;9.998;2022-07-06T15:34:35;20.80;99.90
15103;DHT22;7652;53.584;9.998;2022-07-06T15:37:38;20.80;99.90
15103;DHT22;7652;53.584;9.998;2022-07-06T15:40:42;20.70;99.90
15103;DHT22;7652;53.584;9.998;2022-07-06T15:43:50;20.70;99.90
15103;DHT22;7652;53.584;9.998;2022-07-06T15:46:56;20.60;99.90
15103;DHT22;7652;53.584;9.998;2022-07-06T15:49:59;20.50;99.90
15103;DHT22;7652;53.584;9.998;2022-07-06T15:53:03;20.50;99.90
15103;DHT22;7652;53.584;9.998;2022-07-06T15:56:06;20.50;99.90
15103;DHT22;7652;53.584;9.998;2022-07-06T15:59:10;20.60;99.90
15103;DHT22;7652;53.584;9.998;2022-07-06T16:02:13;20.80;99.90
15103;DHT22;7652;53.584;9.998;2022-07-06T16:05:16;20.90;99.90
15103;DHT22;7652;53.584;9.998;2022-07-06T16:08:23;21.10;99.90
15103;DHT22;7652;53.584;9.998;2022-07-06T16:11:43;21.10;99.90
15103;DHT22;7652;53.584;9.998;2022-07-06T16:14:48;21.20;99.90
15103;DHT22;7652;53.584;9.998;2022-07-06T16:17:51;21.10;99.90
15103;DHT22;7652;53.584;9.998;2022-07-06T16:20:56;21.10;99.90
15103;DHT22;7652;53.584;9.998;2022-07-06T16:23:59;21.00;99.90
15103;DHT22;7652;53.584;9.998;2022-07-06T16:27:02;21.00;99.90
15103;DHT22;7652;53.584;9.998;2022-07-06T16:30:09;20.90;99.90
15103;DHT22;7652;53.584;9.998;2022-07-06T16:33:19;20.90;99.90
15103;DHT22;7652;53.584;9.998;2022-07-06T16:36:22;21.10;99.90
15103;DHT22;7652;53.584;9.998;2022-07-06T16:39:25;21.10;99.90
15103;DHT22;7652;53.584;9.998;2022-07-06T16:42:28;21.00;99.90
15103;DHT22;7652;53.584;9.998;2022-07-06T16:45:33;21.00;99.90
15103;DHT22;7652;53.584;9.998;2022-07-06T16:48:36;21.00;99.90
15103;DHT22;7652;53.584;9.998;2022-07-06T16:51:39;20.90;99.90
15103;DHT22;7652;53.584;9.998;2022-07-06T16:54:42;20.90;99.90
15103;DHT22;7652;53.584;9.998;2022-07-06T16:57:45;20.80;99.90
15103;DHT22;7652;53.584;9.998;2022-07-06T17:00:50;20.70;99.90
15103;DHT22;7652;53.584;9.998;2022-07-06T17:03:53;20.50;99.90
15103;DHT22;7652;53.584;9.998;2022-07-06T17:06:57;20.60;99.90
15103;DHT22;7652;53.584;9.998;2022-07-06T17:10:00;20.60;99.90
15103;DHT22;7652;53.584;9.998;2022-07-06T17:13:03;20.40;99.90
15103;DHT22;7652;53.584;9.998;2022-07-06T17:16:08;20.30;99.90
15103;DHT22;7652;53.584;9.998;2022-07-06T17:19:11;20.30;99.90
15103;DHT22;7652;53.584;9.998;2022-07-06T17:22:14;20.30;99.90
15103;DHT22;7652;53.584;9.998;2022-07-06T17:25:19;20.30;99.90
15103;DHT22;7652;53.584;9.998;2022-07-06T17:28:22;20.30;99.90
15103;DHT22;7652;53.584;9.998;2022-07-06T17:31:27;20.30;99.90
15103;DHT22;7652;53.584;9.998;2022-07-06T17:34:31;20.30;99.90
15103;DHT22;7652;53.584;9.998;2022-07-06T17:37:34;20.40;99.90
15103;DHT22;7652;53.584;9.998;2022-07-06T17:40:37;20.40;99.90
15103;DHT22;7652;53.584;9.998;2022-07-06T17:43:40;20.40;99.90
15103;DHT22;7652;53.584;9.998;2022-07-06T17:46:51;20.40;99.90
15103;DHT22;7652;53.584;9.998;2022-07-06T17:49:54;20.40;99.90
15103;DHT22;7652;53.584;9.998;2022-07-06T17:52:57;20.30;99.90
15103;DHT22;7652;53.584;9.998;2022-07-06T17:56:00;20.30;99.90
15103;DHT22;7652;53.584;9.998;2022-07-06T17:59:03;20.20;99.90
15103;DHT22;7652;53.584;9.998;2022-07-06T18:02:08;20.20;99.90
15103;DHT22;7652;53.584;9.998;2022-07-06T18:05:11;20.10;99.90
15103;DHT22;7652;53.584;9.998;2022-07-06T18:08:15;20.00;99.90
15103;DHT22;7652;53.584;9.998;2022-07-06T18:11:18;19.90;99.90
15103;DHT22;7652;53.584;9.998;2022-07-06T18:14:21;19.90;99.90
15103;DHT22;7652;53.584;9.998;2022-07-06T18:17:25;19.80;99.90
15103;DHT22;7652;53.584;9.998;2022-07-06T18:20:28;19.80;99.90
15103;DHT22;7652;53.584;9.998;2022-07-06T18:23:31;19.80;99.90
15103;DHT22;7652;53.584;9.998;2022-07-06T18:26:34;19.70;99.90
15103;DHT22;7652;53.584;9.998;2022-07-06T18:29:37;19.70;99.90
15103;DHT22;7652;53.584;9.998;2022-07-06T18:32:41;19.70;99.90
15103;DHT22;7652;53.584;9.998;2022-07-06T18:35:44;19.60;99.90
15103;DHT22;7652;53.584;9.998;2022-07-06T18:38:55;19.60;99.90
15103;DHT22;7652;53.584;9.998;2022-07-06T18:41:58;19.60;99.90
15103;DHT22;7652;53.584;9.998;2022-07-06T18:45:04;19.50;99.90
15103;DHT22;7652;53.584;9.998;2022-07-06T18:48:09;19.60;99.90
15103;DHT22;7652;53.584;9.998;2022-07-06T18:51:13;19.60;99.90
15103;DHT22;7652;53.584;9.998;2022-07-06T18:54:17;19.50;99.90
15103;DHT22;7652;53.584;9.998;2022-07-06T18:57:20;19.50;99.90
15103;DHT22;7652;53.584;9.998;2022-07-06T19:00:23;19.50;99.90
15103;DHT22;7652;53.584;9.998;2022-07-06T19:03:27;19.50;99.90
15103;DHT22;7652;53.584;9.998;2022-07-06T19:06:31;19.40;99.90
15103;DHT22;7652;53.584;9.998;2022-07-06T19:09:34;19.40;99.90
15103;DHT22;7652;53.584;9.998;2022-07-06T19:12:37;19.40;99.90
15103;DHT22;7652;53.584;9.998;2022-07-06T19:15:40;19.30;99.90
15103;DHT22;7652;53.584;9.998;2022-07-06T19:18:44;19.30;99.90
15103;DHT22;7652;53.584;9.998;2022-07-06T19:21:47;19.30;99.90
15103;DHT22;7652;53.584;9.998;2022-07-06T19:24:50;19.20;99.90
15103;DHT22;7652;53.584;9.998;2022-07-06T19:27:53;19.20;99.90
15103;DHT22;7652;53.584;9.998;2022-07-06T19:30:56;19.20;99.90
15103;DHT22;7652;53.584;9.998;2022-07-06T19:34:01;19.20;99.90
15103;DHT22;7652;53.584;9.998;2022-07-06T19:37:04;19.10;99.90
15103;DHT22;7652;53.584;9.998;2022-07-06T19:40:08;19.00;99.90
15103;DHT22;7652;53.584;9.998;2022-07-06T19:43:11;19.00;99.90
15103;DHT22;7652;53.584;9.998;2022-07-06T19:46:14;18.90;99.90